Airfield :
LOGIN :

Register | Disclaimer

   EN    FR    IT 

 










Legend :    VFR   Marginal VFR   IFR   Intensive IFR   Very Intensive IFR
Visi :
Ceiling :
>= 8 km
>= 3000ft
5 to 8 km
1000 to 3000 ft
1500m to 5 km
500 to 1000 ft
800 to 1500m
200 to 500 ft
< 800m
< 200 ft
Symbols :   Thunderstorms  Fog  Heavy snow  Heavy precipitations  Wind > 20 kt
SIGMETs :     Misc.  Thunderstorms  Icing  Turbulence  Mountain Waves  Volcanic Ashes







- Airport Elevation : 197 ft
- IATA code : XOG
- Download approach charts


LFMO - Orange

CURRENT METAR :
  • 201430Z AUTO 28003KT 220V320 CAVOK 29/13 Q1012 TEMPO 2000 TSRA BKN050 BKN070CB

EXPIRED METARs :
  • 201400Z AUTO 26004KT 220V290 9999 ////// 29/13 Q1012
  • 201330Z AUTO 24004KT 200V290 CAVOK 29/14 Q1012 NOSIG
  • 201300Z AUTO VRB03KT 9999 ////// 30/15 Q1012
  • 201200Z AUTO VRB03KT CAVOK 29/15 Q1013 NOSIG

TAF TAF LFMO
Valid from the 20 at 15:00 until the 21 at 15:00 UTC


201400Z 2015/2115 26005KT CAVOK
BECMG 2015/2016 34012KT
TEMPO 2016/2022 4000 SHRA BKN070TCU
PROB30
TEMPO 2016/2022 2000 TSRA BKN050 BKN070CB
TEMPO 2113/2115 4000 SHRA BKN060TCU
PROB30
TEMPO 2114/2115 2000 TSRA BKN060CB
No reported NOTAMs for that airfield.



MET'MAP, your aeronautical weather chart ! - Copyright ORBIFLY December 2007 - Disclaimer

ORBIFLY MET'MAP TEAM :

Programming & Development : Alexandra Zaïnal
Concept & Development : Baudouin d'Aumeries
Co-Development & Prog : Marc-Olivier Méhu
Technical & hardware support : Manuel Goepfert

Contact : metmap@orbifly.com




SOURCES & CREDITS :

   NOAA